Time;durP1;ratioP1;P1;durP2;ratioP2;P2;SDS_P1;SDS_P2;PMS_P1;PMS_P2;Temp;Humidity;BMP_temperature;BMP_pressure;BME280_temperature;BME280_humidity;BME280_pressure;Samples;Min_cycle;Max_cycle;Signal;HPM_P1;HPM_P2
2023/12/24 00:00:33;;;;;;;10.43;4.80;;;10.30;97.70;;;;;;5035403;28;21014;-78
2023/12/24 00:03:01;;;;;;;7.50;4.67;;;10.30;97.80;;;;;;5044418;28;20530;-78
2023/12/24 00:05:28;;;;;;;7.53;5.13;;;10.40;97.80;;;;;;5054782;28;20534;-78
2023/12/24 00:07:55;;;;;;;10.37;5.50;;;10.40;97.90;;;;;;5055436;28;20459;-78
2023/12/24 00:10:22;;;;;;;9.23;6.00;;;10.40;98.60;;;;;;5050179;28;20476;-82
2023/12/24 00:12:49;;;;;;;12.13;7.03;;;10.30;98.90;;;;;;5035671;28;20476;-86
2023/12/24 00:15:16;;;;;;;8.00;7.20;;;10.40;98.90;;;;;;5033815;28;20456;-84
2023/12/24 00:17:43;;;;;;;8.87;7.70;;;10.40;99.40;;;;;;5035245;28;20816;-84
2023/12/24 00:20:12;;;;;;;8.80;7.90;;;10.40;99.60;;;;;;5035182;28;20954;-84
2023/12/24 00:22:39;;;;;;;8.53;7.83;;;10.40;99.90;;;;;;5035465;28;20452;-82
2023/12/24 00:25:07;;;;;;;13.97;12.97;;;10.40;99.90;;;;;;5034958;28;20534;-84
2023/12/24 00:27:34;;;;;;;17.33;16.23;;;10.30;99.90;;;;;;5035083;28;20468;-83
2023/12/24 00:30:01;;;;;;;23.77;22.47;;;10.20;99.90;;;;;;5034790;28;20494;-82
2023/12/24 00:32:27;;;;;;;40.57;39.00;;;10.10;99.90;;;;;;5034895;28;20992;-84
2023/12/24 00:34:54;;;;;;;60.67;57.90;;;10.00;99.90;;;;;;5034977;28;20452;-85
2023/12/24 00:37:23;;;;;;;104.10;100.57;;;9.90;99.90;;;;;;5035083;28;20452;-83
2023/12/24 00:39:50;;;;;;;172.30;166.63;;;9.80;99.90;;;;;;5050602;28;21002;-83
2023/12/24 00:42:16;;;;;;;181.20;175.13;;;9.70;99.90;;;;;;5054792;28;20541;-84
2023/12/24 00:44:43;;;;;;;139.20;134.47;;;9.60;99.90;;;;;;5054396;28;20451;-84
2023/12/24 00:47:10;;;;;;;163.83;158.47;;;9.70;99.90;;;;;;5043569;28;20459;-82
2023/12/24 00:49:37;;;;;;;196.77;190.37;;;9.70;99.90;;;;;;5034760;28;20515;-76
2023/12/24 00:52:04;;;;;;;171.87;166.07;;;9.70;99.90;;;;;;5025935;28;20450;-77
2023/12/24 00:54:33;;;;;;;169.37;163.83;;;9.70;99.90;;;;;;5034318;28;20452;-78
2023/12/24 00:56:59;;;;;;;154.60;149.40;;;9.70;99.90;;;;;;5034577;28;20447;-78
2023/12/24 00:59:26;;;;;;;103.77;99.57;;;9.80;99.90;;;;;;5034021;28;20867;-78
2023/12/24 01:01:53;;;;;;;65.73;63.13;;;9.90;99.90;;;;;;5034067;28;20449;-78
2023/12/24 01:04:22;;;;;;;60.50;58.30;;;10.00;99.90;;;;;;5034050;28;20541;-77
2023/12/24 01:06:49;;;;;;;56.70;54.40;;;10.00;99.90;;;;;;5026188;28;20946;-76
2023/12/24 01:09:16;;;;;;;49.67;47.80;;;10.10;99.90;;;;;;5033678;28;20478;-78
2023/12/24 01:11:44;;;;;;;45.87;44.07;;;10.00;99.90;;;;;;5033908;28;20452;-78
2023/12/24 01:14:10;;;;;;;61.00;58.60;;;10.00;99.90;;;;;;5033555;28;20841;-78
2023/12/24 01:16:40;;;;;;;75.30;72.57;;;10.00;99.90;;;;;;5033925;28;20460;-78
2023/12/24 01:19:07;;;;;;;99.00;95.43;;;9.90;99.90;;;;;;5033853;28;20518;-75
2023/12/24 01:21:34;;;;;;;304.67;295.17;;;9.80;99.90;;;;;;5033447;28;20463;-75
2023/12/24 01:24:01;;;;;;;424.00;410.20;;;9.70;99.90;;;;;;5033534;28;20458;-75
2023/12/24 01:26:27;;;;;;;475.80;459.27;;;9.50;99.90;;;;;;5033764;28;20491;-75
2023/12/24 01:28:56;;;;;;;485.50;467.93;;;9.40;99.90;;;;;;5033358;28;20554;-75
2023/12/24 01:31:22;;;;;;;461.60;445.50;;;9.40;99.90;;;;;;5033916;28;20452;-75
2023/12/24 01:33:50;;;;;;;455.47;439.77;;;9.50;99.90;;;;;;5033331;28;20447;-75
2023/12/24 01:36:17;;;;;;;450.73;435.27;;;9.50;99.90;;;;;;5032756;28;20865;-75
2023/12/24 01:38:44;;;;;;;416.40;402.20;;;9.50;99.90;;;;;;5033232;28;20488;-76
2023/12/24 01:41:12;;;;;;;365.00;353.30;;;9.60;99.90;;;;;;5033468;28;20444;-76
2023/12/24 01:43:41;;;;;;;350.87;339.77;;;9.60;99.90;;;;;;5033314;28;20506;-77
2023/12/24 01:46:10;;;;;;;327.03;316.87;;;9.70;99.90;;;;;;5033317;28;20959;-77
2023/12/24 01:48:37;;;;;;;341.33;330.33;;;9.70;99.90;;;;;;5033175;28;20539;-77
2023/12/24 01:51:05;;;;;;;353.17;341.93;;;9.70;99.90;;;;;;5033110;28;20559;-76
2023/12/24 01:53:33;;;;;;;341.27;330.27;;;9.70;99.90;;;;;;5032744;28;20455;-76
2023/12/24 01:56:02;;;;;;;306.57;297.00;;;9.70;99.90;;;;;;5033069;28;20456;-76
2023/12/24 01:58:32;;;;;;;320.47;310.50;;;9.80;99.90;;;;;;5033056;28;20452;-76
2023/12/24 02:00:59;;;;;;;308.03;298.43;;;9.70;99.90;;;;;;5033174;28;20459;-76
2023/12/24 02:03:27;;;;;;;343.70;332.63;;;9.80;99.90;;;;;;5031117;28;20451;-76
2023/12/24 02:05:55;;;;;;;338.40;328.07;;;9.70;99.90;;;;;;5052475;28;20451;-76
2023/12/24 02:08:22;;;;;;;350.27;339.27;;;9.70;99.90;;;;;;5052482;28;20455;-76
2023/12/24 02:10:49;;;;;;;342.03;331.27;;;9.70;99.90;;;;;;5052958;28;20483;-76
2023/12/24 02:13:17;;;;;;;355.10;344.07;;;9.70;99.90;;;;;;5052981;28;20478;-76
2023/12/24 02:15:45;;;;;;;389.90;377.40;;;9.70;99.90;;;;;;5052286;28;20520;-76
2023/12/24 02:18:12;;;;;;;396.70;383.77;;;9.70;99.90;;;;;;5052567;28;20812;-76
2023/12/24 02:20:40;;;;;;;397.27;384.23;;;9.70;99.90;;;;;;5052661;28;20443;-76
2023/12/24 02:23:08;;;;;;;416.33;402.17;;;9.70;99.90;;;;;;5052351;28;20451;-76
2023/12/24 02:25:35;;;;;;;419.47;404.97;;;9.60;99.90;;;;;;5033445;28;20502;-77
2023/12/24 02:28:13;;;;;;;444.73;428.63;;;9.60;99.90;;;;;;5032511;28;20491;-76
2023/12/24 02:30:44;;;;;;;481.90;463.90;;;9.60;99.90;;;;;;5032239;28;20482;-77
2023/12/24 02:33:12;;;;;;;524.20;503.40;;;9.50;99.90;;;;;;5032475;28;20448;-75
2023/12/24 02:35:40;;;;;;;588.90;563.30;;;9.50;99.90;;;;;;5031926;28;20944;-76
2023/12/24 02:38:09;;;;;;;627.30;598.70;;;9.40;99.90;;;;;;5034128;28;20475;-76
2023/12/24 02:40:36;;;;;;;625.73;596.30;;;9.40;99.90;;;;;;5052458;28;20447;-76
2023/12/24 02:43:03;;;;;;;631.73;600.93;;;9.40;99.90;;;;;;5052180;28;20477;-75
2023/12/24 02:45:30;;;;;;;711.80;675.47;;;9.40;99.90;;;;;;5051911;28;20451;-76
2023/12/24 02:47:56;;;;;;;699.37;665.50;;;9.40;99.90;;;;;;5052143;28;20817;-76
2023/12/24 02:50:23;;;;;;;712.47;675.30;;;9.30;99.90;;;;;;5052304;28;20479;-77
2023/12/24 02:52:50;;;;;;;760.67;715.83;;;9.30;99.90;;;;;;5051971;28;20451;-77
2023/12/24 02:55:19;;;;;;;729.10;687.57;;;9.30;99.90;;;;;;5050830;28;20447;-77
2023/12/24 02:57:45;;;;;;;729.80;687.80;;;9.30;99.90;;;;;;5043426;28;20453;-77
2023/12/24 03:00:13;;;;;;;757.53;713.03;;;9.30;99.90;;;;;;5031416;28;20458;-76
2023/12/24 03:02:40;;;;;;;774.20;728.93;;;9.30;99.90;;;;;;5031979;28;20458;-77
2023/12/24 03:05:07;;;;;;;797.50;750.03;;;9.30;99.90;;;;;;5031891;28;20820;-77
2023/12/24 03:07:34;;;;;;;786.53;739.23;;;9.30;99.90;;;;;;5032150;28;20456;-77
2023/12/24 03:10:00;;;;;;;807.80;759.90;;;9.30;99.90;;;;;;5032079;28;20471;-77
2023/12/24 03:12:28;;;;;;;821.87;771.67;;;9.30;99.90;;;;;;5032000;28;20486;-78
2023/12/24 03:14:55;;;;;;;834.73;785.43;;;9.40;99.90;;;;;;5031319;28;20535;-77
2023/12/24 03:17:22;;;;;;;842.80;792.13;;;9.40;99.90;;;;;;5034336;28;20460;-78
2023/12/24 03:19:49;;;;;;;830.47;781.27;;;9.50;99.90;;;;;;5036037;28;20494;-78
2023/12/24 03:22:16;;;;;;;798.70;753.50;;;9.40;99.90;;;;;;5056049;28;20457;-78
2023/12/24 03:24:43;;;;;;;835.37;786.23;;;9.50;99.90;;;;;;5055627;28;20482;-77
2023/12/24 03:27:10;;;;;;;807.60;760.17;;;9.50;99.90;;;;;;5052584;28;20486;-78
2023/12/24 03:29:38;;;;;;;819.13;770.33;;;9.50;99.90;;;;;;5055509;28;20931;-78
2023/12/24 03:32:06;;;;;;;850.87;798.90;;;9.50;99.90;;;;;;5055864;28;20447;-79
2023/12/24 03:34:33;;;;;;;853.67;798.97;;;9.50;99.90;;;;;;5055014;28;20457;-77
2023/12/24 03:36:59;;;;;;;906.23;844.13;;;9.50;99.90;;;;;;5055856;28;20938;-78
2023/12/24 03:39:26;;;;;;;885.47;823.57;;;9.40;99.90;;;;;;5055699;28;20455;-78
2023/12/24 03:41:53;;;;;;;880.47;820.13;;;9.50;99.90;;;;;;5054984;28;20460;-77
2023/12/24 03:44:20;;;;;;;878.00;817.40;;;9.50;99.90;;;;;;5055350;28;20923;-78
2023/12/24 03:46:48;;;;;;;874.53;813.63;;;9.50;99.90;;;;;;5055413;28;20454;-77
2023/12/24 03:49:15;;;;;;;869.10;808.23;;;9.50;99.90;;;;;;5055410;28;20447;-77
2023/12/24 03:51:42;;;;;;;857.37;798.47;;;9.50;99.90;;;;;;5055413;28;20920;-77
2023/12/24 03:54:08;;;;;;;849.87;791.10;;;9.50;99.90;;;;;;5049423;28;20950;-79
2023/12/24 03:56:35;;;;;;;843.50;786.50;;;9.50;99.90;;;;;;5034316;28;20538;-78
2023/12/24 03:59:02;;;;;;;837.40;781.00;;;9.60;99.90;;;;;;5013411;28;20784;-77
2023/12/24 04:01:29;;;;;;;829.73;775.40;;;9.60;99.90;;;;;;5015434;28;20452;-78
2023/12/24 04:03:57;;;;;;;830.80;776.90;;;9.60;99.90;;;;;;5051574;28;20529;-77
2023/12/24 04:06:24;;;;;;;839.50;783.30;;;9.60;99.90;;;;;;5054213;28;20509;-77
2023/12/24 04:08:51;;;;;;;843.40;786.40;;;9.60;99.90;;;;;;5054897;28;20462;-77
2023/12/24 04:11:18;;;;;;;853.07;795.77;;;9.60;99.90;;;;;;5054673;28;21001;-80
2023/12/24 04:13:46;;;;;;;855.07;797.57;;;9.60;99.90;;;;;;5054911;28;20447;-81
2023/12/24 04:16:13;;;;;;;847.97;790.40;;;9.60;99.90;;;;;;5055102;28;20454;-83
2023/12/24 04:18:40;;;;;;;840.80;783.93;;;9.60;99.90;;;;;;5055234;28;20447;-82
2023/12/24 04:21:08;;;;;;;854.37;795.77;;;9.60;99.90;;;;;;5054966;28;20447;-82
2023/12/24 04:23:35;;;;;;;857.37;797.70;;;9.60;99.90;;;;;;5053522;28;20466;-81
2023/12/24 04:26:02;;;;;;;850.43;790.87;;;9.60;99.90;;;;;;5055058;28;20451;-79
2023/12/24 04:28:29;;;;;;;854.60;794.20;;;9.60;99.90;;;;;;5053808;28;20459;-82
2023/12/24 04:30:56;;;;;;;862.17;801.07;;;9.60;99.90;;;;;;5038621;28;20861;-80
2023/12/24 04:33:23;;;;;;;854.63;793.80;;;9.60;99.90;;;;;;5036976;28;20452;-83
2023/12/24 04:35:48;;;;;;;845.40;787.20;;;9.60;99.90;;;;;;5047015;28;20450;-80
2023/12/24 04:38:17;;;;;;;858.50;797.37;;;9.60;99.90;;;;;;5046555;28;20453;-79
2023/12/24 04:40:44;;;;;;;851.30;791.20;;;9.60;99.90;;;;;;5027204;28;20445;-79
2023/12/24 04:43:10;;;;;;;851.60;791.20;;;9.60;99.90;;;;;;5044391;28;20447;-81
2023/12/24 04:45:37;;;;;;;852.60;792.43;;;9.60;99.90;;;;;;5054678;28;20451;-79
2023/12/24 04:48:05;;;;;;;864.90;802.40;;;9.60;99.90;;;;;;5053792;28;20828;-81
